Mactan Cebu International Airport
RPVM : rendu visible

Aérodrome :











RETROUVEZ-NOUS SUR...

 
LOGIN :

S'inscrire | Disclaimer

   EN    FR    IT 

 









Légende :    VFR   VFR Marginal   IFR   IFR Intensif   IFR Très Intensif
Visi : 
Plafond : 
>= 8 km
>= 3000ft
5 à 8 km
1000 à 3000 ft
1500m à 5 km
500 à 1000 ft
800 à 1500m
200 à 500 ft
< 800m
< 200 ft
Symboles :   Orages  Brouillard  Fortes neiges  Fortes précipitations  Vent > 20 kt






- Altitude de l'aérodrome : 31 ft
- Code IATA : CEB


RPVM - Mactan Cebu International

DERNIER METAR :
  • 272000Z VRB01KT 9999 FEW020 26/23 Q1011 RMK A2985

METARs EXPIRÉS :
  • 271900Z 33004KT 9999 FEW020 27/23 Q1011 RMK A2985

TAF TAF RPVM
Valide du 27 à 18h jusqu'au 29 à 00h UTC


271700Z 2718/2824 01006KT 9999 FEW020 SCT300
TEMPO 2718/2724 34004KT FEW020 SCT100
TEMPO 2800/2806 06005KT FEW020



MET'MAP, la Météo Aéronautique d'un coup d'oeil ! - Copyright ORBIFLY Décembre 2007 - Disclaimer

ORBIFLY MET'MAP TEAM :

Programmation & Développement : Alexandra Zaïnal
Sur une idée originale de : Baudouin d'Aumeries
Assistance à la programmation : Marc-Olivier Méhu
Soutien technique & logistique : Manuel Goepfert

Contact : metmap@orbifly.com




SOURCES & CREDITS :

   NOAA       Earth
Advisory